createdAt,value
2022-08-16T00:02:44.718Z,8.20
2022-08-16T00:05:36.882Z,8.10
2022-08-16T00:08:39.066Z,8.83
2022-08-16T00:15:51.420Z,8.53
2022-08-16T00:18:41.681Z,8.60
2022-08-16T00:21:35.008Z,7.90
2022-08-16T00:24:31.321Z,9.60
2022-08-16T00:27:21.587Z,8.97
2022-08-16T00:30:25.027Z,9.60
2022-08-16T00:33:17.483Z,9.73
2022-08-16T00:36:09.962Z,10.53
2022-08-16T00:38:59.789Z,9.80
2022-08-16T00:41:50.754Z,9.97
2022-08-16T00:44:40.776Z,10.80
2022-08-16T00:47:32.113Z,11.00
2022-08-16T00:50:35.940Z,10.27
2022-08-16T00:53:30.707Z,11.67
2022-08-16T00:56:57.518Z,11.03
2022-08-16T00:59:59.041Z,11.20
2022-08-16T01:02:51.973Z,13.07
2022-08-16T01:05:49.566Z,11.20
2022-08-16T01:08:42.239Z,13.03
2022-08-16T01:11:55.132Z,13.23
2022-08-16T01:14:53.658Z,12.70
2022-08-16T01:17:44.822Z,12.10
2022-08-16T01:20:36.456Z,13.20
2022-08-16T01:24:01.137Z,13.33
2022-08-16T01:26:53.568Z,13.17
2022-08-16T01:29:58.228Z,12.27
2022-08-16T01:33:02.190Z,15.00
2022-08-16T01:36:11.669Z,14.20
2022-08-16T01:39:00.533Z,14.07
2022-08-16T01:41:54.942Z,13.97
2022-08-16T01:44:47.439Z,13.77
2022-08-16T01:47:49.373Z,12.93
2022-08-16T01:51:09.139Z,13.30
2022-08-16T01:53:55.771Z,15.37
2022-08-16T01:56:49.228Z,14.57
2022-08-16T01:59:44.209Z,13.97
2022-08-16T02:02:42.485Z,14.77
2022-08-16T02:05:34.872Z,14.20
2022-08-16T02:08:33.479Z,14.00
2022-08-16T02:11:23.040Z,15.50
2022-08-16T02:14:18.257Z,12.87
2022-08-16T02:17:12.813Z,13.97
2022-08-16T02:20:11.600Z,13.47
2022-08-16T02:23:05.865Z,13.50
2022-08-16T02:26:05.248Z,14.13
2022-08-16T02:29:04.541Z,13.73
2022-08-16T02:32:04.163Z,13.97
2022-08-16T02:35:22.958Z,13.90
2022-08-16T02:38:13.754Z,14.30
2022-08-16T02:41:09.638Z,14.20
2022-08-16T02:43:58.969Z,14.30
2022-08-16T02:47:25.508Z,15.30
2022-08-16T02:50:53.622Z,14.67
2022-08-16T02:53:28.576Z,17.23
2022-08-16T02:56:32.263Z,16.40
2022-08-16T02:59:20.757Z,17.13
2022-08-16T03:02:13.383Z,16.27
2022-08-16T03:05:05.368Z,17.30
2022-08-16T03:07:58.432Z,17.13
2022-08-16T03:10:49.743Z,20.07
2022-08-16T03:13:43.736Z,18.70
2022-08-16T03:16:59.664Z,17.10
2022-08-16T03:20:06.468Z,19.60
2022-08-16T03:22:56.562Z,18.20
2022-08-16T03:25:48.398Z,20.10
2022-08-16T03:28:41.092Z,18.53
2022-08-16T03:31:34.665Z,18.30
2022-08-16T03:34:23.136Z,19.03
2022-08-16T03:37:11.620Z,18.57
2022-08-16T03:40:02.900Z,18.30
2022-08-16T03:43:19.043Z,19.17
2022-08-16T03:46:04.728Z,19.33
2022-08-16T03:48:56.824Z,19.20
2022-08-16T03:51:46.882Z,19.53
2022-08-16T03:54:53.011Z,18.70
2022-08-16T03:57:52.414Z,18.43
2022-08-16T04:00:47.882Z,17.90
2022-08-16T04:03:56.216Z,20.00
2022-08-16T04:06:44.417Z,18.57
2022-08-16T04:09:37.891Z,18.80
2022-08-16T04:12:54.481Z,17.87
2022-08-16T04:15:41.434Z,18.80
2022-08-16T04:18:30.799Z,17.40
2022-08-16T04:21:29.095Z,21.07
2022-08-16T04:24:23.126Z,18.20
2022-08-16T04:27:18.610Z,18.63
2022-08-16T04:30:11.088Z,17.83
2022-08-16T04:33:00.790Z,19.13
2022-08-16T04:35:49.809Z,18.57
2022-08-16T04:38:46.723Z,20.77
2022-08-16T04:41:39.903Z,21.30
2022-08-16T04:44:33.035Z,21.10
2022-08-16T04:47:39.754Z,20.10
2022-08-16T04:50:46.034Z,22.03
2022-08-16T04:53:41.359Z,19.77
2022-08-16T04:56:48.719Z,21.10
2022-08-16T04:59:38.159Z,22.10
2022-08-16T05:02:42.215Z,22.17
2022-08-16T05:05:32.787Z,21.43
2022-08-16T05:08:29.216Z,21.63
2022-08-16T05:11:40.430Z,23.70
2022-08-16T05:14:45.207Z,23.77
2022-08-16T05:17:35.580Z,22.30
2022-08-16T05:20:38.994Z,23.17
2022-08-16T05:23:35.996Z,23.47
2022-08-16T05:26:49.637Z,21.97
2022-08-16T05:29:57.822Z,23.90
2022-08-16T05:32:49.732Z,22.70
2022-08-16T05:35:40.739Z,23.20
2022-08-16T05:38:38.797Z,23.43
2022-08-16T05:41:28.601Z,23.67
2022-08-16T05:44:22.981Z,25.50
2022-08-16T05:47:26.362Z,25.67
2022-08-16T05:50:33.810Z,25.20
2022-08-16T05:53:24.377Z,23.43
2022-08-16T05:56:19.450Z,24.60
2022-08-16T05:59:15.851Z,24.47
2022-08-16T06:02:06.479Z,24.90
2022-08-16T06:04:57.174Z,23.77
2022-08-16T06:07:45.542Z,22.57
2022-08-16T06:11:09.562Z,22.80
2022-08-16T06:13:55.426Z,24.17
2022-08-16T06:16:43.979Z,22.97
2022-08-16T06:19:33.822Z,20.10
2022-08-16T06:22:39.064Z,19.37
2022-08-16T06:25:36.221Z,20.83
2022-08-16T06:28:36.590Z,21.00
2022-08-16T06:31:27.935Z,18.37
2022-08-16T06:34:55.442Z,20.50
2022-08-16T06:37:26.073Z,20.80
2022-08-16T06:40:33.656Z,20.30
2022-08-16T06:43:27.363Z,19.90
2022-08-16T06:46:31.771Z,18.83
2022-08-16T06:49:20.807Z,17.50
2022-08-16T06:52:57.266Z,17.90
2022-08-16T06:55:20.666Z,16.87
2022-08-16T06:58:22.357Z,17.47
2022-08-16T07:01:14.828Z,16.60
2022-08-16T07:04:04.118Z,18.67
2022-08-16T07:07:00.181Z,16.20
2022-08-16T07:09:49.622Z,16.97
2022-08-16T07:12:47.067Z,16.50
2022-08-16T07:15:35.966Z,18.00
2022-08-16T07:18:24.826Z,14.83
2022-08-16T07:21:16.198Z,16.43
2022-08-16T07:24:07.459Z,14.80
2022-08-16T07:26:57.284Z,15.77
2022-08-16T07:29:46.900Z,14.50
2022-08-16T07:32:36.696Z,14.90
2022-08-16T07:35:25.658Z,15.70
2022-08-16T07:38:13.999Z,15.10
2022-08-16T07:41:09.538Z,13.23
2022-08-16T07:43:59.796Z,12.63
2022-08-16T07:46:55.572Z,11.50
2022-08-16T07:49:49.830Z,11.87
2022-08-16T07:52:41.988Z,11.57
2022-08-16T07:55:30.338Z,11.13
2022-08-16T07:58:36.255Z,10.97
2022-08-16T08:01:24.961Z,9.60
2022-08-16T08:04:17.831Z,11.00
2022-08-16T08:07:08.921Z,10.73
2022-08-16T08:09:59.504Z,10.77
2022-08-16T08:12:50.133Z,11.10
2022-08-16T08:15:40.210Z,10.07
2022-08-16T08:18:41.458Z,9.97
2022-08-16T08:22:01.533Z,9.20
2022-08-16T08:24:51.615Z,8.73
2022-08-16T08:27:44.183Z,8.70
2022-08-16T08:30:51.833Z,8.90
2022-08-16T08:33:43.869Z,9.90
2022-08-16T08:36:37.025Z,8.40
2022-08-16T08:39:26.834Z,9.30
2022-08-16T08:42:15.624Z,9.30
2022-08-16T08:45:36.072Z,8.40
2022-08-16T08:48:34.026Z,8.93
2022-08-16T08:51:25.406Z,8.77
2022-08-16T08:54:18.663Z,8.70
2022-08-16T08:57:14.537Z,9.77
2022-08-16T09:00:03.278Z,9.73
2022-08-16T09:03:04.355Z,9.10
2022-08-16T09:05:52.931Z,9.30
2022-08-16T09:08:47.485Z,8.03
2022-08-16T09:11:40.941Z,8.80
2022-08-16T09:14:31.284Z,9.67
2022-08-16T09:17:45.610Z,10.27
2022-08-16T09:20:29.283Z,9.80
2022-08-16T09:23:18.408Z,9.63
2022-08-16T09:26:45.561Z,9.80
2022-08-16T09:29:44.931Z,10.60
2022-08-16T09:32:38.190Z,10.20
2022-08-16T09:35:29.225Z,10.33
2022-08-16T09:38:31.090Z,9.30
2022-08-16T09:41:20.870Z,10.60
2022-08-16T09:45:10.995Z,9.37
2022-08-16T09:47:17.314Z,9.10
2022-08-16T09:50:13.989Z,8.80
2022-08-16T09:53:15.182Z,8.60
2022-08-16T09:56:11.504Z,8.53
2022-08-16T09:59:05.771Z,7.90
2022-08-16T10:01:56.687Z,9.10
2022-08-16T10:04:54.726Z,9.67
2022-08-16T10:07:47.145Z,8.70
2022-08-16T10:10:36.687Z,8.77
2022-08-16T10:13:26.577Z,8.90
2022-08-16T10:16:17.714Z,9.17
2022-08-16T10:19:10.371Z,8.70
2022-08-16T10:21:58.971Z,8.37
2022-08-16T10:24:59.534Z,8.67
2022-08-16T10:27:56.659Z,9.67
2022-08-16T10:30:58.586Z,8.67
2022-08-16T10:33:47.754Z,8.13
2022-08-16T10:36:39.120Z,9.03
2022-08-16T10:39:40.753Z,8.17
2022-08-16T10:42:31.977Z,8.73
2022-08-16T10:45:20.824Z,8.90
2022-08-16T10:48:27.158Z,10.23
2022-08-16T10:51:16.692Z,10.07
2022-08-16T10:54:05.177Z,10.03
2022-08-16T10:56:57.046Z,9.10
2022-08-16T10:59:53.216Z,9.40
2022-08-16T11:03:00.316Z,8.53
2022-08-16T11:06:07.419Z,8.83
2022-08-16T11:12:13.904Z,8.77
2022-08-16T11:15:13.466Z,8.10
2022-08-16T11:18:48.514Z,9.30
2022-08-16T11:21:29.172Z,8.80
2022-08-16T11:24:42.510Z,8.63
2022-08-16T11:27:32.686Z,8.00
2022-08-16T11:30:39.370Z,8.93
2022-08-16T11:36:36.658Z,9.30
2022-08-16T11:39:25.415Z,8.63
2022-08-16T11:42:23.218Z,8.27
2022-08-16T11:45:18.969Z,7.97
2022-08-16T11:48:09.113Z,8.70
2022-08-16T11:50:58.522Z,8.70
2022-08-16T11:53:49.737Z,8.00
2022-08-16T11:56:52.487Z,8.40
2022-08-16T11:59:45.005Z,8.93
2022-08-16T12:02:34.022Z,8.07
2022-08-16T12:05:25.026Z,8.13
2022-08-16T12:08:16.406Z,7.90
2022-08-16T12:11:06.725Z,9.50
2022-08-16T12:13:55.705Z,9.47
2022-08-16T12:16:48.696Z,10.27
2022-08-16T12:19:42.444Z,10.03
2022-08-16T12:22:34.042Z,9.30
2022-08-16T12:25:28.896Z,9.33
2022-08-16T12:28:36.625Z,9.50
2022-08-16T12:31:26.754Z,10.07
2022-08-16T12:34:19.729Z,10.73
2022-08-16T12:37:17.630Z,9.20
2022-08-16T12:40:24.005Z,9.10
2022-08-16T12:43:14.608Z,9.90
2022-08-16T12:46:03.750Z,9.87
2022-08-16T12:49:00.278Z,8.90
2022-08-16T12:51:58.560Z,9.40
2022-08-16T12:54:54.978Z,8.80
2022-08-16T12:57:45.030Z,8.63
2022-08-16T13:00:49.529Z,8.70
2022-08-16T13:03:40.509Z,9.23
2022-08-16T13:06:31.543Z,9.47
2022-08-16T13:09:26.526Z,8.20
2022-08-16T13:12:21.665Z,8.53
2022-08-16T13:15:13.755Z,9.60
2022-08-16T13:18:23.909Z,8.73
2022-08-16T13:21:11.629Z,8.60
2022-08-16T13:24:00.033Z,8.50
2022-08-16T13:26:53.360Z,7.77
2022-08-16T13:29:43.706Z,7.87
2022-08-16T13:32:40.079Z,7.80
2022-08-16T13:35:34.638Z,7.40
2022-08-16T13:38:24.882Z,6.70
2022-08-16T13:41:14.273Z,6.53
2022-08-16T13:44:04.389Z,6.83
2022-08-16T13:46:57.816Z,6.73
2022-08-16T13:49:47.686Z,6.80
2022-08-16T13:52:50.331Z,6.50
2022-08-16T13:55:40.943Z,7.10
2022-08-16T13:58:34.638Z,6.40
2022-08-16T14:01:24.561Z,7.73
2022-08-16T14:04:19.094Z,7.40
2022-08-16T14:07:20.143Z,7.30
2022-08-16T14:10:15.321Z,7.53
2022-08-16T14:13:07.170Z,7.30
2022-08-16T14:16:23.451Z,6.93
2022-08-16T14:19:18.141Z,6.47
2022-08-16T14:22:30.114Z,6.77
2022-08-16T14:25:22.270Z,6.90
2022-08-16T14:28:10.778Z,6.80
2022-08-16T14:31:00.997Z,6.40
2022-08-16T14:33:49.445Z,6.10
2022-08-16T14:36:37.793Z,6.53
2022-08-16T14:39:30.582Z,6.27
2022-08-16T14:42:21.212Z,6.60
2022-08-16T14:45:11.575Z,6.50
2022-08-16T14:48:01.979Z,6.30
2022-08-16T14:50:50.187Z,6.20
2022-08-16T14:53:38.761Z,6.20
2022-08-16T14:56:38.593Z,6.43
2022-08-16T14:59:32.792Z,6.63
2022-08-16T15:02:34.587Z,6.90
2022-08-16T15:05:24.657Z,7.03
2022-08-16T15:08:13.262Z,7.07
2022-08-16T15:11:01.821Z,7.23
2022-08-16T15:13:53.785Z,6.97
2022-08-16T15:16:43.233Z,7.17
2022-08-16T15:19:34.925Z,6.63
2022-08-16T15:22:26.737Z,6.73
2022-08-16T15:25:17.642Z,6.87
2022-08-16T15:28:07.470Z,7.00
2022-08-16T15:31:14.749Z,6.73
2022-08-16T15:34:03.324Z,7.07
2022-08-16T15:36:52.135Z,7.70
2022-08-16T15:39:40.809Z,6.87
2022-08-16T15:42:29.493Z,6.67
2022-08-16T15:45:38.777Z,9.70
2022-08-16T15:48:33.902Z,7.77
2022-08-16T15:51:22.492Z,7.10
2022-08-16T15:54:21.540Z,7.20
2022-08-16T15:57:19.147Z,7.27
2022-08-16T16:00:15.038Z,7.60
2022-08-16T16:03:08.714Z,7.70
2022-08-16T16:06:00.819Z,7.20
2022-08-16T16:08:49.897Z,7.10
2022-08-16T16:11:39.323Z,7.10
2022-08-16T16:14:29.873Z,8.00
2022-08-16T16:17:19.714Z,7.47
2022-08-16T16:20:14.700Z,6.83
2022-08-16T16:23:10.700Z,7.50
2022-08-16T16:26:00.331Z,7.47
2022-08-16T16:29:07.830Z,7.00
2022-08-16T16:32:07.465Z,7.03
2022-08-16T16:34:58.877Z,7.07
2022-08-16T16:37:48.883Z,7.00
2022-08-16T16:40:46.370Z,7.80
2022-08-16T16:43:43.759Z,7.20
2022-08-16T16:46:42.487Z,7.40
2022-08-16T16:49:32.913Z,6.93
2022-08-16T16:52:44.243Z,7.30
2022-08-16T16:55:31.123Z,7.00
2022-08-16T16:58:36.438Z,6.90
2022-08-16T17:01:41.441Z,7.70
2022-08-16T17:04:40.305Z,7.33
2022-08-16T17:07:31.107Z,7.27
2022-08-16T17:10:46.139Z,7.07
2022-08-16T17:13:31.320Z,7.30
2022-08-16T17:16:20.662Z,7.07
2022-08-16T17:19:17.558Z,7.43
2022-08-16T17:25:21.309Z,7.83
2022-08-16T17:28:58.571Z,7.83
2022-08-16T17:31:20.551Z,8.00
2022-08-16T17:34:30.688Z,7.70
2022-08-16T17:37:22.107Z,7.60
2022-08-16T17:39:28.108Z,7.30
2022-08-16T17:40:47.926Z,8.23
2022-08-16T17:43:43.954Z,8.30
2022-08-16T17:46:50.445Z,8.00
2022-08-16T17:49:40.805Z,8.33
2022-08-16T17:52:29.321Z,8.30
2022-08-16T17:55:23.204Z,8.30
2022-08-16T17:58:22.261Z,7.90
2022-08-16T18:01:11.703Z,8.27
2022-08-16T18:04:09.212Z,7.83
2022-08-16T18:06:58.337Z,7.70
2022-08-16T18:09:46.517Z,7.70
2022-08-16T18:12:51.103Z,8.10
2022-08-16T18:15:44.193Z,8.00
2022-08-16T18:18:32.400Z,7.77
2022-08-16T18:21:40.208Z,9.37
2022-08-16T18:24:28.990Z,8.37
2022-08-16T18:27:26.485Z,8.33
2022-08-16T18:30:17.574Z,8.13
2022-08-16T18:33:06.174Z,8.50
2022-08-16T18:35:57.712Z,9.40
2022-08-16T18:38:47.918Z,7.90
2022-08-16T18:41:37.895Z,8.03
2022-08-16T18:44:31.059Z,7.50
2022-08-16T18:47:21.988Z,7.57
2022-08-16T18:50:10.659Z,8.20
2022-08-16T18:53:00.002Z,7.77
2022-08-16T18:55:50.235Z,7.33
2022-08-16T18:58:39.718Z,7.20
2022-08-16T19:01:28.368Z,7.57
2022-08-16T19:04:56.956Z,7.77
2022-08-16T19:07:30.971Z,7.37
2022-08-16T19:10:20.354Z,8.50
2022-08-16T19:13:11.720Z,7.50
2022-08-16T19:16:00.844Z,8.10
2022-08-16T19:18:49.422Z,8.23
2022-08-16T19:21:38.723Z,7.40
2022-08-16T19:24:29.094Z,8.00
2022-08-16T19:27:17.953Z,8.57
2022-08-16T19:30:10.459Z,7.90
2022-08-16T19:32:59.002Z,8.40
2022-08-16T19:35:50.749Z,8.10
2022-08-16T19:38:42.938Z,7.50
2022-08-16T19:41:34.210Z,7.57
2022-08-16T19:44:22.997Z,8.30
2022-08-16T19:47:13.577Z,8.00
2022-08-16T19:50:02.266Z,8.67
2022-08-16T19:52:52.877Z,7.73
2022-08-16T19:55:43.670Z,7.93
2022-08-16T19:58:34.401Z,8.30
2022-08-16T20:01:24.210Z,8.40
2022-08-16T20:04:14.130Z,8.30
2022-08-16T20:07:05.574Z,8.43
2022-08-16T20:09:57.075Z,8.90
2022-08-16T20:12:58.230Z,8.13
2022-08-16T20:15:54.299Z,8.47
2022-08-16T20:18:42.848Z,8.67
2022-08-16T20:21:32.969Z,9.00
2022-08-16T20:24:33.981Z,9.00
2022-08-16T20:27:23.755Z,8.47
2022-08-16T20:30:17.712Z,8.83
2022-08-16T20:33:13.293Z,9.70
2022-08-16T20:36:04.911Z,9.80
2022-08-16T20:38:57.793Z,9.23
2022-08-16T20:41:46.418Z,9.33
2022-08-16T20:44:34.973Z,10.50
2022-08-16T20:47:24.219Z,10.13
2022-08-16T20:50:15.052Z,9.73
2022-08-16T20:53:04.446Z,9.27
2022-08-16T20:55:58.651Z,10.50
2022-08-16T20:58:50.420Z,10.73
2022-08-16T21:01:47.171Z,10.50
2022-08-16T21:04:39.407Z,11.00
2022-08-16T21:07:27.643Z,9.83
2022-08-16T21:10:15.871Z,10.27
2022-08-16T21:13:08.526Z,10.50
2022-08-16T21:15:58.548Z,12.43
2022-08-16T21:18:46.746Z,11.63
2022-08-16T21:21:38.819Z,12.77
2022-08-16T21:24:32.651Z,12.30
2022-08-16T21:27:24.461Z,11.80
2022-08-16T21:30:16.286Z,12.10
2022-08-16T21:33:12.665Z,11.93
2022-08-16T21:36:00.902Z,11.50
2022-08-16T21:38:50.363Z,12.57
2022-08-16T21:41:41.498Z,12.20
2022-08-16T21:44:32.542Z,12.80
2022-08-16T21:47:30.039Z,13.23
2022-08-16T21:50:18.365Z,12.63
2022-08-16T21:53:13.710Z,12.17
2022-08-16T21:56:02.936Z,12.20
2022-08-16T21:58:55.342Z,12.40
2022-08-16T22:01:44.552Z,12.50
2022-08-16T22:04:38.447Z,12.17
2022-08-16T22:07:29.655Z,12.03
2022-08-16T22:11:07.695Z,12.07
2022-08-16T22:13:27.855Z,12.90
2022-08-16T22:16:20.501Z,11.90
2022-08-16T22:19:09.991Z,13.57
2022-08-16T22:22:10.094Z,13.07
2022-08-16T22:24:58.318Z,11.83
2022-08-16T22:27:47.525Z,12.70
2022-08-16T22:30:36.931Z,12.97
2022-08-16T22:33:29.597Z,13.13
2022-08-16T22:36:17.802Z,13.47
2022-08-16T22:39:12.218Z,12.87
2022-08-16T22:42:07.043Z,13.20
2022-08-16T22:44:57.662Z,12.87
2022-08-16T22:47:45.917Z,13.33
2022-08-16T22:50:35.679Z,13.83
2022-08-16T22:53:26.876Z,14.20
2022-08-16T22:56:17.408Z,14.07
2022-08-16T22:59:05.633Z,15.20
2022-08-16T23:01:59.705Z,13.17
2022-08-16T23:04:50.987Z,15.47
2022-08-16T23:07:40.863Z,14.90
2022-08-16T23:10:35.558Z,15.70
2022-08-16T23:13:26.997Z,15.03
2022-08-16T23:16:19.161Z,14.10
2022-08-16T23:19:09.289Z,14.93
2022-08-16T23:22:09.203Z,13.60
2022-08-16T23:24:57.774Z,15.03
2022-08-16T23:27:46.122Z,17.60
2022-08-16T23:30:38.957Z,15.73
2022-08-16T23:33:43.065Z,16.03
2022-08-16T23:36:31.245Z,17.23
2022-08-16T23:39:22.243Z,15.07
2022-08-16T23:42:52.223Z,15.63
2022-08-16T23:45:28.278Z,15.60
2022-08-16T23:48:24.230Z,15.80
2022-08-16T23:51:14.510Z,16.57
2022-08-16T23:54:08.281Z,16.20
2022-08-16T23:56:56.517Z,16.00
2022-08-16T23:59:53.594Z,16.57
